createdAt,value
2022-11-30T00:00:08.313Z,-11.67
2022-11-30T00:02:14.316Z,-11.77
2022-11-30T00:04:16.250Z,-11.76
2022-11-30T00:06:23.245Z,-12.13
2022-11-30T00:08:29.402Z,-11.94
2022-11-30T00:10:31.529Z,-11.88
2022-11-30T00:12:34.391Z,-11.89
2022-11-30T00:14:36.714Z,-11.97
2022-11-30T00:16:38.743Z,-11.94
2022-11-30T00:18:41.095Z,-12.01
2022-11-30T00:20:43.306Z,-11.90
2022-11-30T00:22:45.526Z,-11.94
2022-11-30T00:24:47.863Z,-11.94
2022-11-30T00:26:50.261Z,-11.89
2022-11-30T00:28:52.682Z,-11.86
2022-11-30T00:31:00.895Z,-11.87
2022-11-30T00:33:03.150Z,-11.94
2022-11-30T00:35:05.474Z,-11.86
2022-11-30T00:37:07.673Z,-11.92
2022-11-30T00:39:09.899Z,-12.01
2022-11-30T00:41:12.841Z,-11.88
2022-11-30T00:43:15.142Z,-11.98
2022-11-30T00:45:17.368Z,-11.91
2022-11-30T00:47:19.431Z,-11.92
2022-11-30T00:49:21.643Z,-12.06
2022-11-30T00:51:23.594Z,-11.97
2022-11-30T00:53:25.739Z,-12.03
2022-11-30T00:55:29.993Z,-12.01
2022-11-30T00:57:33.038Z,-12.02
2022-11-30T00:59:35.349Z,-12.05
2022-11-30T01:01:37.297Z,-12.06
2022-11-30T01:03:39.515Z,-12.07
2022-11-30T01:05:43.353Z,-12.02
2022-11-30T01:07:45.627Z,-12.03
2022-11-30T01:09:47.603Z,-11.99
2022-11-30T01:11:49.957Z,-11.97
2022-11-30T01:13:52.547Z,-11.93
2022-11-30T01:15:54.679Z,-11.89
2022-11-30T01:17:58.832Z,-11.87
2022-11-30T01:20:01.342Z,-11.86
2022-11-30T01:22:03.558Z,-11.89
2022-11-30T01:24:06.153Z,-11.89
2022-11-30T01:26:09.290Z,-11.88
2022-11-30T01:28:11.506Z,-11.90
2022-11-30T01:30:13.542Z,-11.90
2022-11-30T01:32:15.620Z,-11.94
2022-11-30T01:34:17.838Z,-11.96
2022-11-30T01:36:26.611Z,-11.96
2022-11-30T01:38:35.329Z,-11.94
2022-11-30T01:40:37.498Z,-11.97
2022-11-30T01:42:46.421Z,-11.98
2022-11-30T01:44:52.255Z,-11.94
2022-11-30T01:46:59.938Z,-11.98
2022-11-30T01:49:16.196Z,-11.98
2022-11-30T01:51:18.255Z,-12.03
2022-11-30T01:53:20.417Z,-12.02
2022-11-30T01:55:37.978Z,-12.09
2022-11-30T01:57:45.022Z,-12.11
2022-11-30T01:59:50.891Z,-12.11
2022-11-30T02:01:55.040Z,-12.16
2022-11-30T02:04:03.903Z,-12.17
2022-11-30T02:06:06.439Z,-12.21
2022-11-30T02:08:12.114Z,-12.22
2022-11-30T02:10:22.583Z,-12.24
2022-11-30T02:12:34.267Z,-12.25
2022-11-30T02:14:46.503Z,-12.27
2022-11-30T02:17:02.303Z,-12.29
2022-11-30T02:19:30.721Z,-12.27
2022-11-30T02:21:44.063Z,-12.28
2022-11-30T02:23:58.330Z,-12.30
2022-11-30T02:26:27.814Z,-12.29
2022-11-30T02:28:32.423Z,-12.30
2022-11-30T02:30:40.957Z,-12.32
2022-11-30T02:32:49.199Z,-12.35
2022-11-30T02:34:52.925Z,-12.36
2022-11-30T02:36:56.395Z,-12.33
2022-11-30T02:38:58.775Z,-12.36
2022-11-30T02:41:00.904Z,-12.29
2022-11-30T02:43:04.537Z,-12.31
2022-11-30T02:45:08.250Z,-12.34
2022-11-30T02:47:18.849Z,-12.30
2022-11-30T02:49:30.907Z,-12.31
2022-11-30T02:51:36.410Z,-12.33
2022-11-30T02:53:38.904Z,-12.34
2022-11-30T02:55:41.311Z,-12.33
2022-11-30T02:57:43.384Z,-12.34
2022-11-30T02:59:45.759Z,-12.34
2022-11-30T03:01:51.809Z,-12.62
2022-11-30T03:03:53.959Z,-12.28
2022-11-30T03:05:55.985Z,-12.24
2022-11-30T03:07:58.215Z,-12.24
2022-11-30T03:10:00.357Z,-12.22
2022-11-30T03:12:02.536Z,-12.23
2022-11-30T03:14:04.544Z,-12.21
2022-11-30T03:16:10.476Z,-12.24
2022-11-30T03:18:14.342Z,-12.29
2022-11-30T03:20:16.647Z,-12.28
2022-11-30T03:22:18.784Z,-12.31
2022-11-30T03:24:20.946Z,-12.31
2022-11-30T03:26:22.939Z,-12.30
2022-11-30T03:28:25.531Z,-12.36
2022-11-30T03:30:27.931Z,-12.36
2022-11-30T03:32:31.216Z,-12.39
2022-11-30T03:34:33.836Z,-12.45
2022-11-30T03:36:36.405Z,-12.43
2022-11-30T03:38:38.756Z,-12.47
2022-11-30T03:40:41.048Z,-12.48
2022-11-30T03:42:43.268Z,-12.50
2022-11-30T03:44:45.565Z,-12.50
2022-11-30T03:46:47.993Z,-12.57
2022-11-30T03:48:50.069Z,-12.57
2022-11-30T03:50:52.273Z,-12.63
2022-11-30T03:52:54.954Z,-12.70
2022-11-30T03:54:56.872Z,-12.68
2022-11-30T03:56:58.926Z,-12.75
2022-11-30T03:59:01.069Z,-12.81
2022-11-30T04:01:06.663Z,-12.78
2022-11-30T04:03:08.824Z,-12.85
2022-11-30T04:05:11.416Z,-12.85
2022-11-30T04:07:13.564Z,-12.89
2022-11-30T04:09:15.628Z,-12.98
2022-11-30T04:11:17.657Z,-12.96
2022-11-30T04:13:21.663Z,-13.02
2022-11-30T04:15:24.396Z,-13.08
2022-11-30T04:17:26.354Z,-13.10
2022-11-30T04:19:28.465Z,-13.13
2022-11-30T04:21:30.973Z,-13.09
2022-11-30T04:23:36.343Z,-13.10
2022-11-30T04:25:39.663Z,-13.06
2022-11-30T04:27:41.835Z,-13.02
2022-11-30T04:29:43.840Z,-12.98
2022-11-30T04:31:46.098Z,-13.05
2022-11-30T04:33:48.148Z,-13.05
2022-11-30T04:35:54.794Z,-12.97
2022-11-30T04:37:56.880Z,-12.99
2022-11-30T04:39:58.959Z,-12.95
2022-11-30T04:42:01.029Z,-13.01
2022-11-30T04:44:03.061Z,-12.92
2022-11-30T04:46:06.335Z,-12.91
2022-11-30T04:48:08.726Z,-12.92
2022-11-30T04:50:11.052Z,-12.85
2022-11-30T04:52:13.632Z,-12.88
2022-11-30T04:54:15.803Z,-12.93
2022-11-30T04:56:17.810Z,-12.78
2022-11-30T04:58:19.972Z,-12.81
2022-11-30T05:00:23.065Z,-12.77
2022-11-30T05:02:25.157Z,-12.67
2022-11-30T05:04:27.289Z,-12.62
2022-11-30T05:06:29.432Z,-12.64
2022-11-30T05:08:31.477Z,-12.60
2022-11-30T05:10:34.107Z,-12.57
2022-11-30T05:12:36.635Z,-12.56
2022-11-30T05:14:38.776Z,-12.58
2022-11-30T05:16:40.964Z,-12.56
2022-11-30T05:18:43.058Z,-12.58
2022-11-30T05:20:49.225Z,-12.55
2022-11-30T05:22:51.286Z,-12.65
2022-11-30T05:24:53.415Z,-12.60
2022-11-30T05:26:55.479Z,-12.55
2022-11-30T05:28:57.536Z,-12.57
2022-11-30T05:31:06.405Z,-12.57
2022-11-30T05:33:09.229Z,-12.55
2022-11-30T05:35:11.657Z,-12.51
2022-11-30T05:37:13.730Z,-12.54
2022-11-30T05:39:15.829Z,-12.54
2022-11-30T05:41:20.581Z,-12.53
2022-11-30T05:43:23.155Z,-12.47
2022-11-30T05:45:27.759Z,-12.45
2022-11-30T05:47:30.009Z,-12.41
2022-11-30T05:49:32.194Z,-12.40
2022-11-30T05:51:34.219Z,-12.38
2022-11-30T05:53:36.812Z,-12.44
2022-11-30T05:55:39.014Z,-12.40
2022-11-30T06:00:24.573Z,-12.39
2022-11-30T06:02:28.437Z,-12.36
2022-11-30T06:04:31.062Z,-12.38
2022-11-30T06:06:33.667Z,-12.31
2022-11-30T06:08:35.938Z,-12.25
2022-11-30T06:10:37.969Z,-12.21
2022-11-30T06:12:40.186Z,-12.22
2022-11-30T06:14:42.811Z,-12.17
2022-11-30T06:16:45.098Z,-12.06
2022-11-30T06:18:47.409Z,-12.22
2022-11-30T06:20:49.547Z,-12.04
2022-11-30T06:22:52.138Z,-12.09
2022-11-30T06:24:54.344Z,-12.10
2022-11-30T06:26:56.420Z,-12.01
2022-11-30T06:28:58.486Z,-11.89
2022-11-30T06:31:01.170Z,-11.83
2022-11-30T06:33:03.820Z,-11.86
2022-11-30T06:35:06.346Z,-11.79
2022-11-30T06:37:08.801Z,-11.81
2022-11-30T06:39:12.913Z,-11.89
2022-11-30T06:41:15.086Z,-11.73
2022-11-30T06:43:17.238Z,-11.69
2022-11-30T06:45:19.289Z,-11.68
2022-11-30T06:47:21.501Z,-11.73
2022-11-30T06:49:23.561Z,-11.66
2022-11-30T06:51:25.878Z,-11.61
2022-11-30T06:53:28.038Z,-11.79
2022-11-30T06:56:29.303Z,-11.47
2022-11-30T06:58:31.499Z,-11.37
2022-11-30T07:00:34.200Z,-11.35
2022-11-30T07:02:36.825Z,-11.31
2022-11-30T07:04:39.693Z,-11.35
2022-11-30T07:06:41.754Z,-11.12
2022-11-30T07:08:44.441Z,-11.05
2022-11-30T07:10:47.639Z,-11.06
2022-11-30T07:12:50.492Z,-10.99
2022-11-30T07:14:55.689Z,-10.96
2022-11-30T07:16:58.575Z,-11.05
2022-11-30T07:19:00.718Z,-10.96
2022-11-30T07:21:04.899Z,-10.80
2022-11-30T07:23:26.294Z,-10.74
2022-11-30T07:25:47.228Z,-10.77
2022-11-30T07:27:49.761Z,-10.69
2022-11-30T07:29:52.653Z,-10.67
2022-11-30T07:31:54.988Z,-10.49
2022-11-30T07:33:57.726Z,-10.43
2022-11-30T07:35:59.996Z,-10.34
2022-11-30T07:38:06.725Z,-10.27
2022-11-30T07:40:12.052Z,-10.22
2022-11-30T07:42:17.180Z,-10.32
2022-11-30T07:44:19.318Z,-10.21
2022-11-30T07:46:21.551Z,-10.32
2022-11-30T07:48:23.570Z,-10.08
2022-11-30T07:50:25.938Z,-10.06
2022-11-30T07:52:29.949Z,-10.09
2022-11-30T07:54:32.073Z,-9.93
2022-11-30T07:56:34.282Z,-10.10
2022-11-30T07:58:36.344Z,-9.84
2022-11-30T08:00:41.912Z,-9.78
2022-11-30T08:02:44.012Z,-9.77
2022-11-30T08:04:46.824Z,-9.68
2022-11-30T08:06:49.147Z,-9.70
2022-11-30T08:08:54.108Z,-9.67
2022-11-30T08:11:00.079Z,-9.77
2022-11-30T08:13:02.196Z,-9.70
2022-11-30T08:15:19.933Z,-9.74
2022-11-30T08:17:22.967Z,-9.89
2022-11-30T08:19:25.112Z,-9.84
2022-11-30T08:21:27.207Z,-9.92
2022-11-30T08:23:33.182Z,-9.83
2022-11-30T08:25:35.828Z,-9.85
2022-11-30T08:27:37.980Z,-9.75
2022-11-30T08:29:40.006Z,-9.67
2022-11-30T08:31:42.071Z,-9.75
2022-11-30T08:33:44.744Z,-9.81
2022-11-30T08:35:46.964Z,-9.83
2022-11-30T08:37:49.088Z,-9.72
2022-11-30T08:39:51.128Z,-9.87
2022-11-30T08:41:53.866Z,-9.97
2022-11-30T08:43:55.928Z,-9.97
2022-11-30T08:45:58.070Z,-9.99
2022-11-30T08:48:00.110Z,-9.86
2022-11-30T08:50:02.689Z,-9.81
2022-11-30T08:52:20.103Z,-9.68
2022-11-30T08:54:22.353Z,-9.66
2022-11-30T08:56:24.926Z,-9.63
2022-11-30T08:58:32.583Z,-9.58
2022-11-30T09:00:34.759Z,-9.57
2022-11-30T09:02:37.697Z,-9.54
2022-11-30T09:04:39.878Z,-9.47
2022-11-30T09:06:42.140Z,-9.41
2022-11-30T09:08:45.835Z,-9.28
2022-11-30T09:10:47.821Z,-9.24
2022-11-30T09:12:49.944Z,-9.15
2022-11-30T09:14:57.661Z,-9.07
2022-11-30T09:17:00.474Z,-8.97
2022-11-30T09:19:02.582Z,-8.94
2022-11-30T09:21:09.055Z,-8.85
2022-11-30T09:23:20.092Z,-9.08
2022-11-30T09:25:23.300Z,-8.90
2022-11-30T09:27:31.403Z,-8.77
2022-11-30T09:29:33.567Z,-8.74
2022-11-30T09:31:35.935Z,-8.86
2022-11-30T09:33:38.532Z,-9.04
2022-11-30T09:35:40.780Z,-8.85
2022-11-30T09:37:43.160Z,-8.81
2022-11-30T09:39:45.191Z,-8.80
2022-11-30T09:41:56.579Z,-8.81
2022-11-30T09:44:17.193Z,-8.85
2022-11-30T09:46:30.847Z,-8.70
2022-11-30T09:49:10.372Z,-8.51
2022-11-30T09:51:19.059Z,-8.44
2022-11-30T09:53:43.499Z,-8.36
2022-11-30T09:55:46.022Z,-8.27
2022-11-30T09:58:02.409Z,-8.21
2022-11-30T10:00:15.187Z,-8.14
2022-11-30T10:02:18.461Z,-8.31
2022-11-30T10:04:25.943Z,-8.08
2022-11-30T10:06:33.053Z,-8.04
2022-11-30T10:09:09.626Z,-7.92
2022-11-30T10:11:14.540Z,-7.82
2022-11-30T10:13:44.613Z,-7.74
2022-11-30T10:16:10.052Z,-7.72
2022-11-30T10:18:23.599Z,-7.61
2022-11-30T10:20:44.374Z,-7.57
2022-11-30T10:22:56.218Z,-7.54
2022-11-30T10:25:17.416Z,-7.53
2022-11-30T10:27:34.382Z,-7.57
2022-11-30T10:29:41.927Z,-7.52
2022-11-30T10:31:45.033Z,-7.43
2022-11-30T10:33:50.284Z,-7.36
2022-11-30T10:36:00.481Z,-7.36
2022-11-30T10:38:12.787Z,-7.38
2022-11-30T10:40:49.851Z,-7.40
2022-11-30T10:43:20.756Z,-7.39
2022-11-30T10:45:24.616Z,-7.50
2022-11-30T10:47:36.963Z,-7.63
2022-11-30T10:49:45.612Z,-7.65
2022-11-30T10:51:53.947Z,-7.61
2022-11-30T10:53:58.145Z,-7.67
2022-11-30T10:56:12.546Z,-7.56
2022-11-30T10:58:32.032Z,-7.49
2022-11-30T11:00:34.176Z,-7.49
2022-11-30T11:02:42.243Z,-7.46
2022-11-30T11:04:44.363Z,-7.46
2022-11-30T11:06:53.788Z,-7.53
2022-11-30T11:08:56.201Z,-7.58
2022-11-30T11:10:58.227Z,-7.61
2022-11-30T11:13:01.006Z,-7.63
2022-11-30T11:15:18.455Z,-7.66
2022-11-30T11:17:23.226Z,-7.73
2022-11-30T11:19:33.967Z,-7.74
2022-11-30T11:21:36.816Z,-7.76
2022-11-30T11:23:41.958Z,-7.84
2022-11-30T11:25:44.246Z,-7.90
2022-11-30T11:27:53.383Z,-8.05
2022-11-30T11:30:08.092Z,-8.04
2022-11-30T11:32:25.106Z,-8.09
2022-11-30T11:34:33.002Z,-8.01
2022-11-30T11:36:37.110Z,-8.01
2022-11-30T11:38:48.424Z,-8.00
2022-11-30T11:41:03.143Z,-8.02
2022-11-30T11:43:17.007Z,-8.05
2022-11-30T11:45:39.413Z,-8.16
2022-11-30T11:47:45.238Z,-8.30
2022-11-30T11:49:49.777Z,-8.35
2022-11-30T11:52:04.930Z,-8.40
2022-11-30T11:54:26.177Z,-8.40
2022-11-30T11:56:40.100Z,-8.40
2022-11-30T11:59:04.102Z,-8.40
2022-11-30T12:01:38.527Z,-8.42
2022-11-30T12:03:48.401Z,-8.45
2022-11-30T12:05:57.187Z,-8.43
2022-11-30T12:08:14.862Z,-8.45
2022-11-30T12:12:55.108Z,-8.51
2022-11-30T12:14:58.735Z,-8.62
2022-11-30T12:17:10.220Z,-8.59
2022-11-30T12:19:19.633Z,-8.64
2022-11-30T12:21:40.389Z,-8.72
2022-11-30T12:24:04.896Z,-8.81
2022-11-30T12:26:13.107Z,-8.88
2022-11-30T12:28:24.286Z,-8.98
2022-11-30T12:31:11.818Z,-9.11
2022-11-30T12:33:29.770Z,-9.16
2022-11-30T12:35:40.015Z,-9.14
2022-11-30T12:37:48.101Z,-9.18
2022-11-30T12:39:57.454Z,-9.24
2022-11-30T12:42:07.139Z,-9.34
2022-11-30T12:44:29.465Z,-9.36
2022-11-30T12:46:43.847Z,-9.43
2022-11-30T12:48:48.993Z,-9.48
2022-11-30T12:50:51.564Z,-9.51
2022-11-30T12:53:17.205Z,-9.55
2022-11-30T12:55:37.013Z,-9.57
2022-11-30T12:57:51.752Z,-9.61
2022-11-30T13:00:16.227Z,-9.68
2022-11-30T13:02:36.597Z,-9.75
2022-11-30T13:04:42.709Z,-9.91
2022-11-30T13:06:54.659Z,-9.95
2022-11-30T13:09:26.253Z,-10.01
2022-11-30T13:11:35.362Z,-10.18
2022-11-30T13:13:42.221Z,-10.27
2022-11-30T13:15:46.256Z,-10.30
2022-11-30T13:17:52.577Z,-10.36
2022-11-30T13:20:08.650Z,-10.43
2022-11-30T13:22:19.518Z,-10.49
2022-11-30T13:24:34.935Z,-10.57
2022-11-30T13:26:48.971Z,-10.61
2022-11-30T13:29:45.012Z,-10.69
2022-11-30T13:32:22.239Z,-10.84
2022-11-30T13:34:39.831Z,-10.89
2022-11-30T13:36:45.598Z,-10.99
2022-11-30T13:39:08.099Z,-11.10
2022-11-30T13:41:10.420Z,-10.97
2022-11-30T13:43:21.192Z,-11.01
2022-11-30T13:45:27.860Z,-11.11
2022-11-30T13:47:34.847Z,-11.14
2022-11-30T13:49:37.314Z,-11.23
2022-11-30T13:51:42.218Z,-11.27
2022-11-30T13:53:48.028Z,-11.35
2022-11-30T13:56:03.843Z,-11.23
2022-11-30T13:58:08.688Z,-11.26
2022-11-30T14:00:30.246Z,-11.27
2022-11-30T14:05:19.870Z,-11.37
2022-11-30T14:08:10.307Z,-11.85
2022-11-30T14:13:14.437Z,-11.47
2022-11-30T14:15:42.040Z,-11.97
2022-11-30T14:17:51.453Z,-12.01
2022-11-30T14:20:17.207Z,-11.87
2022-11-30T14:22:39.398Z,-12.01
2022-11-30T14:24:54.557Z,-11.87
2022-11-30T14:27:04.038Z,-11.62
2022-11-30T14:29:24.962Z,-11.91
2022-11-30T14:31:33.769Z,-11.66
2022-11-30T14:33:46.286Z,-11.67
2022-11-30T14:35:55.503Z,-11.71
2022-11-30T14:37:59.914Z,-11.72
2022-11-30T14:40:14.311Z,-11.71
2022-11-30T14:42:29.438Z,-11.70
2022-11-30T14:44:36.757Z,-11.75
2022-11-30T14:46:39.753Z,-11.77
2022-11-30T14:48:44.138Z,-11.71
2022-11-30T14:50:52.039Z,-11.72
2022-11-30T14:53:13.178Z,-11.73
2022-11-30T14:55:19.332Z,-11.74
2022-11-30T14:57:39.022Z,-11.77
2022-11-30T14:59:53.439Z,-11.84
2022-11-30T15:02:07.163Z,-11.82
2022-11-30T15:04:18.043Z,-11.87
2022-11-30T15:06:23.656Z,-11.79
2022-11-30T15:08:43.527Z,-11.88
2022-11-30T15:10:46.916Z,-11.94
2022-11-30T15:12:51.246Z,-11.94
2022-11-30T15:15:14.312Z,-11.89
2022-11-30T15:17:16.707Z,-11.84
2022-11-30T15:19:24.950Z,-11.86
2022-11-30T15:21:33.839Z,-11.98
2022-11-30T15:23:36.201Z,-12.00
2022-11-30T15:25:44.109Z,-11.95
2022-11-30T15:27:46.712Z,-11.94
2022-11-30T15:30:01.112Z,-11.97
2022-11-30T15:32:15.909Z,-12.01
2022-11-30T15:34:28.931Z,-12.02
2022-11-30T15:37:11.817Z,-11.96
2022-11-30T15:39:24.678Z,-12.00
2022-11-30T15:41:30.070Z,-12.10
2022-11-30T15:43:39.630Z,-12.04
2022-11-30T15:45:53.665Z,-12.12
2022-11-30T15:47:57.957Z,-12.11
2022-11-30T15:50:00.346Z,-12.07
2022-11-30T15:52:17.437Z,-12.07
2022-11-30T15:54:46.689Z,-12.03
2022-11-30T15:56:57.602Z,-12.06
2022-11-30T15:59:20.873Z,-12.08
2022-11-30T16:01:26.770Z,-12.06
2022-11-30T16:03:29.317Z,-12.21
2022-11-30T16:05:33.515Z,-12.18
2022-11-30T16:07:48.192Z,-12.10
2022-11-30T16:09:50.493Z,-12.21
2022-11-30T16:11:57.488Z,-12.14
2022-11-30T16:13:59.786Z,-12.22
2022-11-30T16:16:02.144Z,-12.16
2022-11-30T16:18:19.198Z,-12.15
2022-11-30T16:20:28.914Z,-12.13
2022-11-30T16:22:31.508Z,-12.15
2022-11-30T16:24:33.653Z,-12.15
2022-11-30T16:26:50.449Z,-12.17
2022-11-30T16:28:55.625Z,-12.18
2022-11-30T16:31:02.313Z,-12.20
2022-11-30T16:33:04.961Z,-12.21
2022-11-30T16:35:36.254Z,-12.32
2022-11-30T16:37:39.727Z,-12.39
2022-11-30T16:39:45.475Z,-12.41
2022-11-30T16:41:48.406Z,-12.45
2022-11-30T16:43:54.010Z,-12.35
2022-11-30T16:45:58.410Z,-12.34
2022-11-30T16:48:00.528Z,-12.39
2022-11-30T16:50:02.978Z,-12.40
2022-11-30T16:52:05.650Z,-12.41
2022-11-30T16:54:14.112Z,-12.55
2022-11-30T16:56:23.325Z,-12.54
2022-11-30T16:58:25.751Z,-12.56
2022-11-30T17:00:28.501Z,-12.74
2022-11-30T17:02:30.665Z,-12.59
2022-11-30T17:04:33.389Z,-12.58
2022-11-30T17:06:35.436Z,-12.58
2022-11-30T17:08:38.694Z,-12.70
2022-11-30T17:10:42.552Z,-12.77
2022-11-30T17:12:45.321Z,-12.81
2022-11-30T17:14:47.982Z,-12.74
2022-11-30T17:16:50.805Z,-12.69
2022-11-30T17:18:53.235Z,-12.70
2022-11-30T17:20:55.755Z,-12.79
2022-11-30T17:23:01.310Z,-12.71
2022-11-30T17:25:11.706Z,-12.81
2022-11-30T17:27:15.571Z,-12.71
2022-11-30T17:29:18.567Z,-12.77
2022-11-30T17:31:21.915Z,-12.79
2022-11-30T17:33:24.375Z,-12.71
2022-11-30T17:35:26.577Z,-12.78
2022-11-30T17:37:29.444Z,-12.89
2022-11-30T17:39:34.477Z,-12.92
2022-11-30T17:41:39.692Z,-12.85
2022-11-30T17:43:42.311Z,-12.86
2022-11-30T17:45:44.877Z,-12.94
2022-11-30T17:47:47.457Z,-12.92
2022-11-30T17:49:52.890Z,-13.14
2022-11-30T17:51:55.791Z,-13.02
2022-11-30T17:53:58.545Z,-13.08
2022-11-30T17:56:05.720Z,-12.99
2022-11-30T17:58:08.436Z,-12.96
2022-11-30T18:00:15.201Z,-12.93
2022-11-30T18:02:17.887Z,-13.24
2022-11-30T18:04:26.095Z,-13.04
2022-11-30T18:06:29.658Z,-12.97
2022-11-30T18:08:34.897Z,-12.95
2022-11-30T18:10:41.033Z,-12.89
2022-11-30T18:12:43.678Z,-12.96
2022-11-30T18:14:46.014Z,-12.91
2022-11-30T18:16:48.524Z,-12.94
2022-11-30T18:18:51.748Z,-12.98
2022-11-30T18:20:54.763Z,-13.05
2022-11-30T18:23:08.067Z,-13.04
2022-11-30T18:25:10.558Z,-12.98
2022-11-30T18:27:46.738Z,-12.90
2022-11-30T18:29:48.890Z,-12.88
2022-11-30T18:31:51.469Z,-12.88
2022-11-30T18:34:05.415Z,-12.84
2022-11-30T18:36:08.075Z,-12.83
2022-11-30T18:38:10.258Z,-12.90
2022-11-30T18:40:13.530Z,-12.82
2022-11-30T18:42:16.493Z,-12.89
2022-11-30T18:44:19.473Z,-12.91
2022-11-30T18:46:22.464Z,-12.89
2022-11-30T18:48:25.421Z,-12.86
2022-11-30T18:50:29.447Z,-12.88
2022-11-30T18:52:31.621Z,-12.84
2022-11-30T18:54:37.061Z,-12.93
2022-11-30T18:56:39.548Z,-12.91
2022-11-30T18:58:46.691Z,-13.00
2022-11-30T19:00:48.975Z,-13.24
2022-11-30T19:02:51.211Z,-12.89
2022-11-30T19:04:53.383Z,-12.94
2022-11-30T19:06:55.626Z,-12.92
2022-11-30T19:08:57.971Z,-12.98
2022-11-30T19:11:05.800Z,-12.94
2022-11-30T19:13:08.037Z,-12.99
2022-11-30T19:15:10.546Z,-13.02
2022-11-30T19:17:12.781Z,-12.98
2022-11-30T19:19:17.614Z,-13.03
2022-11-30T19:21:21.685Z,-13.16
2022-11-30T19:23:23.983Z,-13.07
2022-11-30T19:25:25.986Z,-12.97
2022-11-30T19:27:28.046Z,-13.04
2022-11-30T19:29:30.274Z,-13.10
2022-11-30T19:31:32.359Z,-13.03
2022-11-30T19:33:36.146Z,-13.11
2022-11-30T19:35:38.821Z,-13.05
2022-11-30T19:37:41.120Z,-13.30
2022-11-30T19:39:45.264Z,-13.08
2022-11-30T19:41:48.318Z,-13.21
2022-11-30T19:44:03.107Z,-13.15
2022-11-30T19:46:08.149Z,-13.18
2022-11-30T19:48:14.234Z,-13.20
2022-11-30T19:50:16.879Z,-13.14
2022-11-30T19:52:20.473Z,-13.19
2022-11-30T19:54:22.980Z,-13.22
2022-11-30T19:56:26.609Z,-13.23
2022-11-30T19:58:31.227Z,-13.25
2022-11-30T20:00:33.483Z,-13.30
2022-11-30T20:02:36.450Z,-13.36
2022-11-30T20:04:39.371Z,-13.39
2022-11-30T20:06:42.144Z,-13.42
2022-11-30T20:08:47.501Z,-13.44
2022-11-30T20:10:49.616Z,-13.47
2022-11-30T20:12:51.654Z,-13.44
2022-11-30T20:14:54.998Z,-13.47
2022-11-30T20:16:57.663Z,-13.48
2022-11-30T20:19:02.905Z,-13.56
2022-11-30T20:21:13.517Z,-13.55
2022-11-30T20:23:15.793Z,-13.60
2022-11-30T20:25:17.821Z,-13.70
2022-11-30T20:27:23.867Z,-13.68
2022-11-30T20:29:25.966Z,-13.65
2022-11-30T20:31:28.938Z,-13.66
2022-11-30T20:33:31.105Z,-13.70
2022-11-30T20:35:39.078Z,-13.79
2022-11-30T20:37:44.277Z,-13.74
2022-11-30T20:39:47.289Z,-13.75
2022-11-30T20:41:49.704Z,-14.07
2022-11-30T20:43:53.239Z,-13.78
2022-11-30T20:45:55.421Z,-13.76
2022-11-30T20:48:13.368Z,-13.71
2022-11-30T20:50:15.427Z,-13.70
2022-11-30T20:52:17.464Z,-13.69
2022-11-30T20:54:22.681Z,-13.77
2022-11-30T20:56:25.291Z,-13.83
2022-11-30T20:58:27.727Z,-13.80
2022-11-30T21:00:30.179Z,-13.69
2022-11-30T21:02:32.200Z,-13.63
2022-11-30T21:04:37.231Z,-13.67
2022-11-30T21:06:40.633Z,-13.69
2022-11-30T21:08:43.112Z,-13.65
2022-11-30T21:10:45.981Z,-13.71
2022-11-30T21:12:48.631Z,-13.76
2022-11-30T21:14:50.657Z,-13.67
2022-11-30T21:16:53.029Z,-13.68
2022-11-30T21:18:55.294Z,-13.71
2022-11-30T21:21:11.591Z,-13.70
2022-11-30T21:23:13.915Z,-13.73
2022-11-30T21:25:16.003Z,-13.73
2022-11-30T21:27:18.188Z,-13.79
2022-11-30T21:29:20.466Z,-13.66
2022-11-30T21:31:24.148Z,-13.66
2022-11-30T21:33:27.998Z,-13.63
2022-11-30T21:35:30.268Z,-13.70
2022-11-30T21:37:32.193Z,-13.63
2022-11-30T21:39:35.791Z,-13.72
2022-11-30T21:41:39.750Z,-13.70
2022-11-30T21:43:42.419Z,-13.74
2022-11-30T21:45:58.323Z,-13.72
2022-11-30T21:48:00.522Z,-13.75
2022-11-30T21:50:04.864Z,-13.75
2022-11-30T21:52:07.642Z,-13.83
2022-11-30T21:54:13.091Z,-13.82
2022-11-30T21:56:21.422Z,-13.82
2022-11-30T21:58:23.638Z,-13.83
2022-11-30T22:00:26.308Z,-13.80
2022-11-30T22:02:28.561Z,-13.85
2022-11-30T22:04:30.684Z,-13.84
2022-11-30T22:06:34.229Z,-13.89
2022-11-30T22:08:37.064Z,-13.92
2022-11-30T22:10:39.127Z,-13.95
2022-11-30T22:12:41.286Z,-14.01
2022-11-30T22:14:43.377Z,-13.98
2022-11-30T22:16:45.794Z,-13.94
2022-11-30T22:18:48.590Z,-13.96
2022-11-30T22:20:50.618Z,-14.03
2022-11-30T22:22:52.832Z,-14.03
2022-11-30T22:24:55.815Z,-14.04
2022-11-30T22:26:57.888Z,-14.10
2022-11-30T22:29:03.720Z,-14.07
2022-11-30T22:31:07.910Z,-14.14
2022-11-30T22:33:10.057Z,-14.09
2022-11-30T22:35:12.100Z,-14.11
2022-11-30T22:37:14.182Z,-14.14
2022-11-30T22:39:17.508Z,-14.16
2022-11-30T22:41:19.679Z,-14.18
2022-11-30T22:43:21.786Z,-14.20
2022-11-30T22:45:24.067Z,-14.24
2022-11-30T22:47:26.188Z,-14.28
2022-11-30T22:49:28.145Z,-14.27
2022-11-30T22:51:32.461Z,-14.33
2022-11-30T22:53:36.269Z,-14.34
2022-11-30T22:55:38.477Z,-14.41
2022-11-30T22:57:41.007Z,-14.41
2022-11-30T22:59:43.613Z,-14.41
2022-11-30T23:01:48.073Z,-14.42
2022-11-30T23:03:51.850Z,-14.44
2022-11-30T23:05:54.875Z,-14.51
2022-11-30T23:07:57.012Z,-14.58
2022-11-30T23:09:58.991Z,-14.53
2022-11-30T23:12:01.066Z,-14.54
2022-11-30T23:14:06.243Z,-14.51
2022-11-30T23:16:09.884Z,-14.51
2022-11-30T23:18:11.977Z,-14.48
2022-11-30T23:20:14.220Z,-14.53
2022-11-30T23:22:16.461Z,-14.53
2022-11-30T23:24:23.929Z,-14.54
2022-11-30T23:26:28.711Z,-14.57
2022-11-30T23:28:30.831Z,-14.54
2022-11-30T23:30:33.601Z,-14.53
2022-11-30T23:32:36.131Z,-14.53
2022-11-30T23:34:38.361Z,-14.52
2022-11-30T23:36:40.199Z,-14.53
2022-11-30T23:38:42.584Z,-14.59
2022-11-30T23:40:44.635Z,-14.63
2022-11-30T23:42:46.504Z,-14.58
2022-11-30T23:44:48.497Z,-14.61
2022-11-30T23:46:50.852Z,-14.64
2022-11-30T23:48:52.910Z,-14.60
2022-11-30T23:50:55.238Z,-14.60
2022-11-30T23:52:57.244Z,-14.63
2022-11-30T23:54:59.226Z,-14.64
2022-11-30T23:57:01.234Z,-14.69
2022-11-30T23:59:06.148Z,-14.69
